Time;durP1;ratioP1;P1;durP2;ratioP2;P2;SDS_P1;SDS_P2;PMS_P1;PMS_P2;Temp;Humidity;BMP_temperature;BMP_pressure;BME280_temperature;BME280_humidity;BME280_pressure;Samples;Min_cycle;Max_cycle;Signal;HPM_P1;HPM_P2
2022/07/16 00:01:56;;;;;;;9.60;6.40;;;;;;;9.41;79.38;98223.77;104862;1288;22661;-86
2022/07/16 00:04:24;;;;;;;13.60;6.90;;;;;;;9.33;79.48;98229.96;104815;1288;22780;-87
2022/07/16 00:06:52;;;;;;;12.70;7.40;;;;;;;9.26;79.04;98232.39;105098;1287;22731;-87
2022/07/16 00:09:20;;;;;;;10.40;6.10;;;;;;;9.23;78.46;98229.44;105086;1288;22665;-88
2022/07/16 00:11:48;;;;;;;9.50;5.80;;;;;;;9.24;78.91;98230.08;105070;1287;23434;-87
2022/07/16 00:14:16;;;;;;;10.90;6.50;;;;;;;9.22;79.65;98229.08;105144;1288;24436;-87
2022/07/16 00:16:44;;;;;;;11.50;6.70;;;;;;;9.12;80.19;98228.09;105132;1287;22682;-88
2022/07/16 00:19:15;;;;;;;10.20;6.60;;;;;;;9.00;80.31;98225.86;105136;1287;22586;-87
2022/07/16 00:21:45;;;;;;;12.70;6.00;;;;;;;8.93;80.59;98224.36;105167;1287;22578;-87
2022/07/16 00:24:13;;;;;;;12.00;6.50;;;;;;;8.90;80.43;98220.61;105077;1287;23941;-88
2022/07/16 00:26:42;;;;;;;12.30;6.10;;;;;;;8.88;80.90;98217.41;104899;1288;25263;-88
2022/07/16 00:29:11;;;;;;;13.20;6.30;;;;;;;8.83;81.43;98214.86;104948;1288;24278;-86
2022/07/16 00:31:39;;;;;;;11.20;6.10;;;;;;;8.76;82.26;98216.79;105075;1287;23274;-88
2022/07/16 00:34:08;;;;;;;10.00;6.40;;;;;;;8.69;81.92;98217.74;105118;1287;23008;-87
2022/07/16 00:36:38;;;;;;;14.20;5.80;;;;;;;8.67;81.72;98215.92;105169;1287;23022;-89
2022/07/16 00:39:08;;;;;;;11.70;5.70;;;;;;;8.68;81.22;98211.90;105207;1287;22735;-87
2022/07/16 00:41:37;;;;;;;11.90;6.30;;;;;;;8.70;81.14;98213.44;105200;1288;22570;-88
2022/07/16 00:44:08;;;;;;;11.50;7.60;;;;;;;8.70;80.93;98212.11;105107;1288;22708;-87
2022/07/16 00:46:39;;;;;;;10.50;7.00;;;;;;;8.70;80.73;98209.09;105262;1287;25250;-85
2022/07/16 00:49:09;;;;;;;9.00;6.40;;;;;;;8.71;80.48;98204.58;104976;1287;25378;-88
2022/07/16 00:51:43;;;;;;;8.70;6.60;;;;;;;8.67;80.90;98198.96;105057;1288;25209;-87
2022/07/16 00:54:11;;;;;;;9.40;6.20;;;;;;;8.62;80.96;98203.27;105230;1287;24437;-87
2022/07/16 00:56:40;;;;;;;13.20;6.10;;;;;;;8.60;81.62;98201.20;105158;1288;25401;-86
2022/07/16 00:59:08;;;;;;;9.80;6.80;;;;;;;8.58;81.99;98201.91;105170;1287;22713;-86
2022/07/16 01:01:36;;;;;;;9.90;6.70;;;;;;;8.56;82.03;98203.42;105026;1287;22558;-88
2022/07/16 01:04:04;;;;;;;11.20;6.10;;;;;;;8.55;82.04;98205.46;105124;1287;25431;-89
2022/07/16 01:06:32;;;;;;;10.40;6.30;;;;;;;8.56;81.96;98205.80;104960;1288;23869;-89
2022/07/16 01:09:01;;;;;;;10.10;6.10;;;;;;;8.58;82.86;98201.69;105221;1288;23102;-87
2022/07/16 01:11:31;;;;;;;11.50;7.00;;;;;;;8.57;83.28;98201.06;105141;1287;23753;-86
2022/07/16 01:14:02;;;;;;;9.50;6.60;;;;;;;8.57;83.69;98199.08;105242;1287;22572;-88
2022/07/16 01:16:30;;;;;;;9.90;6.20;;;;;;;8.59;83.38;98194.96;105195;1287;22554;-88
2022/07/16 01:18:58;;;;;;;8.40;6.40;;;;;;;8.66;83.41;98193.32;105081;1287;25430;-88
2022/07/16 01:21:26;;;;;;;9.00;5.90;;;;;;;8.69;83.79;98190.52;105049;1287;22675;-87
2022/07/16 01:23:54;;;;;;;9.80;6.50;;;;;;;8.68;83.80;98188.14;104846;1287;24212;-87
2022/07/16 01:26:22;;;;;;;9.70;6.50;;;;;;;8.66;84.10;98186.50;105188;1287;23937;-87
2022/07/16 01:28:50;;;;;;;7.80;5.80;;;;;;;8.63;84.28;98186.08;105310;1287;25596;-89
2022/07/16 01:31:18;;;;;;;8.10;5.50;;;;;;;8.60;84.46;98177.95;105022;1287;22591;-91
2022/07/16 01:34:24;;;;;;;10.30;6.20;;;;;;;8.62;84.54;98188.02;105096;1287;22704;-86
2022/07/16 01:36:35;;;;;;;12.20;6.50;;;;;;;8.61;83.81;98179.80;105083;1287;24432;-88
2022/07/16 01:39:04;;;;;;;12.20;6.70;;;;;;;8.62;83.93;98180.19;105152;1287;22569;-88
2022/07/16 01:41:54;;;;;;;10.20;6.10;;;;;;;8.62;84.15;98177.55;103006;1310;545787;-87
2022/07/16 01:44:24;;;;;;;10.40;6.70;;;;;;;8.55;84.57;98178.30;105693;1284;25326;-88
2022/07/16 01:46:54;;;;;;;9.20;6.10;;;;;;;8.50;84.90;98180.16;105565;1284;22643;-88
2022/07/16 01:49:22;;;;;;;11.70;6.30;;;;;;;8.49;85.11;98179.09;105552;1284;22538;-87
2022/07/16 01:51:50;;;;;;;10.60;6.20;;;;;;;8.51;84.56;98176.23;105532;1283;22790;-88
2022/07/16 01:54:18;;;;;;;11.20;6.80;;;;;;;8.52;84.47;98177.50;105966;1274;228886;-87
2022/07/16 01:56:46;;;;;;;11.00;6.90;;;;;;;8.50;85.10;98178.00;106347;1274;25236;-88
2022/07/16 01:59:14;;;;;;;9.90;6.40;;;;;;;8.46;85.17;98175.50;106314;1274;25422;-87
2022/07/16 02:01:42;;;;;;;11.30;7.40;;;;;;;8.43;85.23;98176.37;106360;1272;24412;-87
2022/07/16 02:04:10;;;;;;;9.50;6.00;;;;;;;8.41;85.13;98173.05;106313;1273;24499;-86
2022/07/16 02:06:38;;;;;;;10.70;6.90;;;;;;;8.40;85.28;98175.59;106336;1273;22682;-88
2022/07/16 02:09:06;;;;;;;11.10;7.50;;;;;;;8.36;85.37;98175.58;106283;1274;22543;-87
2022/07/16 02:11:34;;;;;;;12.50;8.00;;;;;;;8.34;85.19;98173.50;106385;1274;25460;-87
2022/07/16 02:14:02;;;;;;;11.20;7.80;;;;;;;8.31;85.75;98171.05;106300;1272;22604;-87
2022/07/16 02:16:30;;;;;;;10.10;6.70;;;;;;;8.27;85.45;98167.95;106211;1274;22679;-88
2022/07/16 02:18:58;;;;;;;9.70;6.90;;;;;;;8.24;85.98;98169.96;106270;1274;22570;-87
2022/07/16 02:21:27;;;;;;;11.50;8.50;;;;;;;8.19;85.94;98166.76;106254;1273;23218;-85
2022/07/16 02:23:54;;;;;;;12.10;8.80;;;;;;;8.16;86.10;98166.83;106242;1274;22583;-88
2022/07/16 02:26:22;;;;;;;12.10;8.00;;;;;;;8.11;86.39;98166.43;106194;1273;22553;-88
2022/07/16 02:28:50;;;;;;;10.30;7.70;;;;;;;8.08;86.33;98166.60;106213;1274;25458;-89
2022/07/16 02:31:20;;;;;;;9.80;7.90;;;;;;;8.05;85.94;98163.92;106232;1274;25391;-88
2022/07/16 02:33:48;;;;;;;13.20;9.00;;;;;;;8.08;85.62;98160.37;106083;1274;22589;-87
2022/07/16 02:36:16;;;;;;;9.60;7.40;;;;;;;8.16;85.58;98164.63;106194;1274;22573;-89
2022/07/16 02:38:44;;;;;;;11.60;9.30;;;;;;;8.14;86.31;98161.73;106174;1274;24398;-85
2022/07/16 02:41:12;;;;;;;11.20;8.60;;;;;;;8.07;86.83;98164.98;106194;1274;24399;-87
2022/07/16 02:43:40;;;;;;;13.30;8.90;;;;;;;8.05;86.77;98163.98;106174;1274;22588;-88
2022/07/16 02:46:08;;;;;;;10.80;7.60;;;;;;;8.05;86.57;98162.84;106028;1273;23924;-88
2022/07/16 02:48:36;;;;;;;9.40;7.10;;;;;;;8.01;86.82;98166.47;106181;1274;22551;-88
2022/07/16 02:51:04;;;;;;;13.50;9.00;;;;;;;7.98;87.65;98168.24;106192;1274;24090;-87
2022/07/16 02:53:32;;;;;;;10.60;8.70;;;;;;;7.95;87.64;98167.98;106192;1274;22880;-87
2022/07/16 02:56:00;;;;;;;11.20;8.50;;;;;;;7.88;87.71;98165.23;105975;1274;24083;-87
2022/07/16 02:58:28;;;;;;;11.10;8.00;;;;;;;7.83;88.54;98167.84;106144;1274;22531;-88
2022/07/16 03:00:56;;;;;;;11.40;7.30;;;;;;;7.83;88.02;98166.11;106176;1274;23928;-88
2022/07/16 03:03:24;;;;;;;14.50;7.80;;;;;;;7.83;88.29;98166.38;106180;1274;22550;-87
2022/07/16 03:05:52;;;;;;;15.40;8.60;;;;;;;7.80;87.81;98165.09;106231;1274;22851;-87
2022/07/16 03:08:20;;;;;;;9.90;8.10;;;;;;;7.88;87.21;98166.31;106176;1274;22537;-87
2022/07/16 03:10:48;;;;;;;12.90;8.50;;;;;;;7.90;87.67;98162.75;106218;1273;22701;-87
2022/07/16 03:13:17;;;;;;;12.00;7.90;;;;;;;7.89;88.67;98165.08;106162;1277;25373;-87
2022/07/16 03:15:45;;;;;;;10.60;7.30;;;;;;;7.89;88.21;98165.23;106272;1274;24232;-87
2022/07/16 03:18:13;;;;;;;12.60;8.60;;;;;;;7.92;89.17;98167.05;106252;1274;24887;-87
2022/07/16 03:20:41;;;;;;;13.70;8.80;;;;;;;7.94;89.33;98168.75;106194;1274;23851;-87
2022/07/16 03:23:09;;;;;;;13.00;8.70;;;;;;;7.95;89.12;98164.66;106229;1274;22704;-87
2022/07/16 03:25:37;;;;;;;13.20;8.70;;;;;;;7.97;88.33;98166.96;106231;1274;22541;-88
2022/07/16 03:28:05;;;;;;;14.00;9.70;;;;;;;7.97;88.98;98170.06;106247;1274;23503;-88
2022/07/16 03:30:34;;;;;;;14.40;11.30;;;;;;;7.97;89.69;98168.73;106440;1274;24508;-86
2022/07/16 03:33:03;;;;;;;13.90;10.20;;;;;;;7.96;89.45;98171.75;106869;1274;24265;-88
2022/07/16 03:35:31;;;;;;;13.40;11.30;;;;;;;7.96;89.76;98177.97;106204;1274;24273;-88
2022/07/16 03:40:46;;;;;;;16.90;10.20;;;;;;;8.05;89.04;98182.92;106245;1274;22575;-88
2022/07/16 03:43:14;;;;;;;15.30;10.80;;;;;;;8.13;89.33;98190.04;106219;1274;22560;-87
2022/07/16 03:45:42;;;;;;;15.90;12.00;;;;;;;8.24;88.99;98191.11;106243;1274;25448;-86
2022/07/16 03:48:10;;;;;;;18.80;11.60;;;;;;;8.43;89.25;98187.27;106247;1274;25361;-88
2022/07/16 03:50:38;;;;;;;17.20;12.70;;;;;;;8.60;88.63;98189.70;106275;1274;25302;-88
2022/07/16 03:53:06;;;;;;;18.00;14.60;;;;;;;8.70;88.56;98185.98;106249;1274;22566;-88
2022/07/16 03:55:33;;;;;;;19.30;16.40;;;;;;;8.81;88.43;98182.48;106215;1274;22709;-87
2022/07/16 03:58:01;;;;;;;19.60;14.20;;;;;;;8.99;88.63;98185.02;106265;1274;25308;-87
2022/07/16 04:00:29;;;;;;;19.70;14.80;;;;;;;9.16;88.56;98186.98;106239;1274;24521;-87
2022/07/16 04:03:03;;;;;;;21.00;13.50;;;;;;;9.34;88.57;98184.49;106247;1274;24603;-88
2022/07/16 04:05:31;;;;;;;19.30;17.20;;;;;;;9.52;88.23;98180.77;106246;1274;24414;-85
2022/07/16 04:08:00;;;;;;;20.20;16.60;;;;;;;9.65;88.01;98181.35;106246;1274;22774;-87
2022/07/16 04:10:28;;;;;;;23.50;21.00;;;;;;;9.78;88.09;98179.59;106315;1274;22853;-87
2022/07/16 04:12:56;;;;;;;21.70;15.70;;;;;;;9.88;88.01;98175.16;106253;1274;24367;-87
2022/07/16 04:15:24;;;;;;;19.00;17.00;;;;;;;10.05;88.69;98178.41;106265;1274;22553;-86
2022/07/16 04:17:52;;;;;;;19.10;13.40;;;;;;;10.21;88.09;98174.02;106343;1274;22700;-88
2022/07/16 04:20:20;;;;;;;18.00;13.40;;;;;;;10.40;88.21;98172.16;106404;1274;22610;-88
2022/07/16 04:22:48;;;;;;;14.70;13.00;;;;;;;10.60;88.20;98169.16;106212;1274;22643;-88
2022/07/16 04:25:16;;;;;;;17.70;11.80;;;;;;;10.77;87.83;98165.72;106252;1274;24386;-88
2022/07/16 04:27:45;;;;;;;14.50;12.10;;;;;;;10.93;88.07;98171.29;106219;1274;24423;-88
2022/07/16 04:30:13;;;;;;;16.50;12.60;;;;;;;11.06;87.98;98171.45;106286;1274;25458;-88
2022/07/16 04:32:42;;;;;;;19.30;12.00;;;;;;;11.21;87.56;98170.23;106218;1274;24418;-87
2022/07/16 04:35:12;;;;;;;20.50;12.30;;;;;;;11.37;87.70;98171.13;106207;1274;22684;-88
2022/07/16 04:37:40;;;;;;;19.80;11.90;;;;;;;11.52;87.65;98175.45;106236;1274;25293;-88
2022/07/16 04:40:11;;;;;;;15.60;11.20;;;;;;;11.63;87.59;98178.48;106207;1274;25765;-87
2022/07/16 04:42:41;;;;;;;12.60;10.00;;;;;;;11.73;87.44;98176.33;106215;1274;22643;-86
2022/07/16 04:45:11;;;;;;;15.70;10.50;;;;;;;11.84;87.29;98175.90;106234;1274;24418;-88
2022/07/16 04:47:40;;;;;;;16.30;10.60;;;;;;;11.97;87.32;98172.42;106295;1274;25401;-89
2022/07/16 04:50:09;;;;;;;15.20;10.20;;;;;;;12.10;87.14;98172.81;106205;1274;24237;-88
2022/07/16 04:52:37;;;;;;;16.10;10.30;;;;;;;12.20;86.87;98176.16;106227;1274;22555;-88
2022/07/16 04:55:06;;;;;;;14.30;10.50;;;;;;;12.30;86.79;98178.19;106191;1274;23928;-88
2022/07/16 04:57:34;;;;;;;16.50;10.70;;;;;;;12.37;86.63;98179.23;106213;1274;22553;-88
2022/07/16 05:00:03;;;;;;;16.70;10.20;;;;;;;12.41;86.00;98185.20;106236;1274;25486;-87
2022/07/16 05:05:20;;;;;;;15.40;9.80;;;;;;;12.55;86.05;98181.80;106196;1274;22538;-87
2022/07/16 05:07:48;;;;;;;14.40;10.20;;;;;;;12.63;85.43;98180.91;106239;1274;22591;-87
2022/07/16 05:10:16;;;;;;;17.00;10.80;;;;;;;12.67;85.05;98179.80;106262;1274;25434;-88
2022/07/16 05:12:44;;;;;;;15.70;10.40;;;;;;;12.71;84.61;98180.02;106231;1274;24399;-88
2022/07/16 05:15:12;;;;;;;18.20;10.10;;;;;;;12.78;84.10;98184.63;106176;1274;22733;-87
2022/07/16 05:17:40;;;;;;;18.60;9.80;;;;;;;12.77;84.25;98178.64;106143;1274;22777;-88
2022/07/16 05:20:09;;;;;;;15.20;9.80;;;;;;;12.79;84.49;98175.13;106152;1274;22706;-88
2022/07/16 05:22:37;;;;;;;14.20;9.90;;;;;;;12.84;84.09;98176.75;105998;1274;22695;-88
2022/07/16 05:25:07;;;;;;;13.80;10.20;;;;;;;12.87;84.22;98174.84;106155;1274;22850;-87
2022/07/16 05:27:36;;;;;;;16.30;10.50;;;;;;;12.93;84.07;98177.02;106226;1274;24202;-88
2022/07/16 05:30:05;;;;;;;17.00;9.90;;;;;;;13.00;83.97;98172.48;106220;1274;25540;-86
2022/07/16 05:32:44;;;;;;;12.80;9.40;;;;;;;13.09;83.20;98171.12;106225;1274;25337;-88
2022/07/16 05:35:14;;;;;;;13.90;10.60;;;;;;;13.14;82.95;98169.88;106311;1274;24422;-88
2022/07/16 05:37:43;;;;;;;12.40;9.00;;;;;;;13.24;83.44;98169.69;106249;1274;25355;-88
2022/07/16 05:40:12;;;;;;;11.20;9.20;;;;;;;13.37;83.59;98165.91;106228;1274;23288;-87
2022/07/16 05:42:40;;;;;;;14.40;8.80;;;;;;;13.48;83.02;98164.11;106218;1274;24271;-88
2022/07/16 05:45:16;;;;;;;16.90;9.10;;;;;;;13.60;82.77;98165.66;106191;1274;24429;-89
2022/07/16 05:47:45;;;;;;;15.20;9.20;;;;;;;13.72;82.28;98170.07;106268;1274;22691;-87
2022/07/16 05:50:13;;;;;;;14.90;9.30;;;;;;;13.80;82.44;98165.79;106490;1274;22603;-88
2022/07/16 05:52:41;;;;;;;15.90;9.90;;;;;;;13.91;82.42;98162.25;106824;1274;24272;-88
2022/07/16 05:55:10;;;;;;;15.20;9.90;;;;;;;14.01;82.08;98159.19;106257;1274;25615;-86
2022/07/16 05:57:38;;;;;;;13.90;9.40;;;;;;;14.14;82.00;98153.58;106284;1274;22561;-87
2022/07/16 06:00:10;;;;;;;18.80;9.70;;;;;;;14.31;82.16;98152.65;106273;1274;22531;-88
2022/07/16 06:02:41;;;;;;;15.80;9.50;;;;;;;14.47;81.44;98151.23;106252;1274;24394;-86
2022/07/16 06:05:10;;;;;;;19.70;9.80;;;;;;;14.63;81.47;98152.67;106204;1274;22830;-88
2022/07/16 06:07:39;;;;;;;17.90;14.30;;;;;;;14.82;80.99;98155.01;106257;1274;24412;-88
2022/07/16 06:10:07;;;;;;;15.90;10.60;;;;;;;14.94;79.11;98150.39;106250;1274;22608;-86
2022/07/16 06:12:35;;;;;;;18.80;12.60;;;;;;;15.05;78.68;98147.55;106244;1275;24275;-88
2022/07/16 06:15:05;;;;;;;17.70;11.90;;;;;;;15.09;77.96;98149.29;106232;1275;22567;-86
2022/07/16 06:17:34;;;;;;;24.00;18.20;;;;;;;15.20;78.40;98149.67;106260;1274;25525;-88
2022/07/16 06:20:03;;;;;;;28.50;22.40;;;;;;;15.31;76.47;98151.55;106227;1274;24472;-87
2022/07/16 06:22:31;;;;;;;27.50;24.60;;;;;;;15.46;75.33;98157.30;106239;1274;24656;-89
2022/07/16 06:24:59;;;;;;;30.90;27.80;;;;;;;15.61;73.61;98157.43;106195;1274;25559;-87
2022/07/16 06:27:27;;;;;;;27.00;22.50;;;;;;;15.75;73.69;98160.01;106110;1274;25458;-89
2022/07/16 06:29:55;;;;;;;14.00;11.30;;;;;;;15.79;71.41;98158.89;106169;1274;24201;-89
2022/07/16 06:32:23;;;;;;;22.90;14.30;;;;;;;15.80;70.19;98163.39;106209;1274;22542;-88
2022/07/16 06:34:51;;;;;;;16.50;13.40;;;;;;;15.90;70.75;98161.52;106239;1274;24367;-86
2022/07/16 06:37:19;;;;;;;18.00;12.30;;;;;;;16.00;71.29;98160.20;106190;1274;23329;-88
2022/07/16 06:39:47;;;;;;;15.90;13.80;;;;;;;16.07;69.47;98155.68;106142;1274;22572;-88
2022/07/16 06:42:15;;;;;;;21.00;15.70;;;;;;;16.13;70.17;98156.55;106234;1274;25190;-88
2022/07/16 06:44:44;;;;;;;25.00;13.50;;;;;;;16.23;71.00;98158.32;106179;1274;22585;-86
2022/07/16 06:47:11;;;;;;;18.80;12.70;;;;;;;16.26;70.31;98154.32;106253;1274;24150;-85
2022/07/16 06:49:39;;;;;;;19.30;13.60;;;;;;;16.26;68.58;98152.77;106227;1277;24775;-86
2022/07/16 06:52:07;;;;;;;14.90;13.10;;;;;;;16.24;69.80;98144.93;106134;1274;22784;-87
2022/07/16 06:54:35;;;;;;;17.80;14.50;;;;;;;16.29;68.71;98138.34;106204;1274;24429;-87
2022/07/16 06:57:03;;;;;;;14.70;10.20;;;;;;;16.39;67.73;98145.95;106231;1274;22652;-86
2022/07/16 06:59:31;;;;;;;15.30;12.90;;;;;;;16.47;67.09;98148.02;106278;1274;24276;-89
2022/07/16 07:01:59;;;;;;;16.70;13.30;;;;;;;16.50;65.90;98147.07;106326;1274;22654;-87
2022/07/16 07:04:27;;;;;;;14.70;8.20;;;;;;;16.58;65.87;98145.26;106192;1274;25315;-86
2022/07/16 07:06:56;;;;;;;18.40;8.60;;;;;;;16.61;64.99;98153.99;106372;1274;22553;-87
2022/07/16 07:09:24;;;;;;;14.30;6.10;;;;;;;16.65;64.51;98149.55;106367;1274;23481;-85
2022/07/16 07:11:52;;;;;;;8.60;4.50;;;;;;;16.67;63.29;98150.42;106284;1274;22550;-86
2022/07/16 07:14:20;;;;;;;12.80;6.70;;;;;;;16.75;64.80;98144.26;106145;1274;22554;-88
2022/07/16 07:16:48;;;;;;;14.50;6.40;;;;;;;16.89;65.41;98138.81;106213;1274;22545;-86
2022/07/16 07:19:16;;;;;;;10.10;5.90;;;;;;;17.07;65.19;98136.02;106243;1274;22547;-87
2022/07/16 07:21:44;;;;;;;11.10;5.50;;;;;;;17.20;64.23;98140.14;106227;1274;24483;-88
2022/07/16 07:24:12;;;;;;;10.00;5.50;;;;;;;17.28;62.31;98136.58;106258;1274;25394;-87
2022/07/16 07:27:00;;;;;;;11.60;4.30;;;;;;;17.33;60.07;98136.60;106263;1274;25376;-87
2022/07/16 07:29:28;;;;;;;10.30;5.20;;;;;;;17.32;59.06;98141.30;106323;1274;24473;-87
2022/07/16 07:31:56;;;;;;;9.00;4.60;;;;;;;17.36;59.61;98139.55;106237;1274;22693;-86
2022/07/16 07:34:24;;;;;;;12.40;4.70;;;;;;;17.43;60.04;98139.37;106259;1274;22667;-86
2022/07/16 07:36:52;;;;;;;8.10;3.70;;;;;;;17.52;58.94;98138.93;106261;1274;25373;-87
2022/07/16 07:39:20;;;;;;;27.70;5.40;;;;;;;17.65;59.37;98138.06;106223;1274;23836;-87
2022/07/16 07:41:48;;;;;;;7.60;3.90;;;;;;;17.80;58.20;98135.77;106284;1274;25403;-86
2022/07/16 07:44:16;;;;;;;7.80;3.70;;;;;;;17.87;55.82;98139.12;106129;1277;22714;-87
2022/07/16 07:46:44;;;;;;;9.80;3.60;;;;;;;17.86;55.43;98131.67;106214;1274;25357;-86
2022/07/16 07:49:11;;;;;;;10.30;3.70;;;;;;;17.82;55.82;98131.73;106210;1274;22690;-86
2022/07/16 07:51:39;;;;;;;8.20;4.10;;;;;;;17.85;54.95;98131.63;106219;1274;22654;-87
2022/07/16 07:54:07;;;;;;;7.90;3.60;;;;;;;17.83;55.47;98127.92;106227;1274;22538;-87
2022/07/16 07:56:35;;;;;;;11.50;3.70;;;;;;;17.84;55.92;98124.91;106223;1274;24261;-89
2022/07/16 07:59:03;;;;;;;7.00;3.40;;;;;;;17.88;53.72;98123.73;106112;1275;22567;-88
2022/07/16 08:01:31;;;;;;;9.20;3.30;;;;;;;17.81;52.21;98128.95;106260;1274;22640;-88
2022/07/16 08:03:59;;;;;;;11.30;4.00;;;;;;;17.83;51.95;98127.20;106244;1274;22703;-87
2022/07/16 08:06:27;;;;;;;7.80;4.00;;;;;;;17.85;51.34;98130.88;106247;1274;25010;-86
2022/07/16 08:08:55;;;;;;;8.40;4.70;;;;;;;17.83;53.23;98128.46;106257;1274;24290;-88
2022/07/16 08:11:27;;;;;;;9.00;4.40;;;;;;;18.01;52.56;98125.83;106219;1274;22604;-84
2022/07/16 08:13:55;;;;;;;9.80;4.40;;;;;;;18.17;51.15;98130.30;106251;1274;24358;-86
2022/07/16 08:16:43;;;;;;;11.80;4.50;;;;;;;18.22;50.14;98121.09;106268;1274;25353;-85
2022/07/16 08:19:11;;;;;;;7.10;3.50;;;;;;;18.30;51.70;98111.38;106230;1274;25309;-86
2022/07/16 08:21:39;;;;;;;8.70;3.70;;;;;;;18.52;50.63;98109.73;106261;1274;23957;-86
2022/07/16 08:26:55;;;;;;;6.20;3.30;;;;;;;18.53;48.27;98112.90;106206;1274;22540;-86
2022/07/16 08:29:23;;;;;;;6.10;3.40;;;;;;;18.59;49.02;98113.38;106040;1275;22553;-87
2022/07/16 08:31:52;;;;;;;7.60;3.30;;;;;;;18.66;48.20;98113.81;106162;1274;24256;-86
2022/07/16 08:34:23;;;;;;;7.20;3.20;;;;;;;18.63;47.29;98110.14;106165;1274;25316;-87
2022/07/16 08:36:53;;;;;;;9.30;3.10;;;;;;;18.63;46.79;98108.75;106208;1274;25576;-87
2022/07/16 08:39:21;;;;;;;6.80;3.20;;;;;;;18.65;47.97;98101.08;106142;1274;22578;-87
2022/07/16 08:41:49;;;;;;;7.20;2.90;;;;;;;18.74;46.11;98098.79;106211;1274;22553;-86
2022/07/16 08:44:17;;;;;;;10.40;3.50;;;;;;;18.70;45.57;98102.47;106175;1274;24415;-86
2022/07/16 08:46:45;;;;;;;8.30;3.20;;;;;;;18.69;46.02;98094.23;106184;1274;24278;-87
2022/07/16 08:49:13;;;;;;;8.10;3.10;;;;;;;18.73;46.19;98100.70;106202;1274;22550;-87
2022/07/16 08:51:42;;;;;;;11.80;5.90;;;;;;;18.76;46.36;98100.55;106252;1274;22806;-85
2022/07/16 08:54:15;;;;;;;11.10;4.30;;;;;;;18.86;45.66;98100.83;106274;1274;22610;-86
2022/07/16 08:56:43;;;;;;;6.70;3.40;;;;;;;18.96;46.05;98097.04;106113;1275;22557;-87
2022/07/16 08:59:13;;;;;;;7.00;3.40;;;;;;;19.07;45.38;98097.48;106149;1274;22654;-85
2022/07/16 09:01:41;;;;;;;9.60;3.50;;;;;;;19.20;45.05;98090.02;106257;1274;22547;-87
2022/07/16 09:04:10;;;;;;;8.30;3.30;;;;;;;19.33;44.96;98093.41;106237;1274;22782;-87
2022/07/16 09:06:38;;;;;;;7.60;3.50;;;;;;;19.51;45.34;98090.83;106297;1274;22805;-88
2022/07/16 09:09:06;;;;;;;7.10;3.00;;;;;;;19.64;45.09;98091.36;107548;1274;22540;-85
2022/07/16 09:11:35;;;;;;;8.20;3.30;;;;;;;19.75;43.79;98088.00;106609;1275;22547;-86
2022/07/16 09:14:13;;;;;;;8.70;3.50;;;;;;;19.77;44.27;98083.80;106282;1274;22550;-87
2022/07/16 09:16:43;;;;;;;8.90;3.10;;;;;;;19.95;43.51;98087.77;106040;1274;22613;-87
2022/07/16 09:19:20;;;;;;;6.10;2.90;;;;;;;19.83;43.48;98087.79;106230;1274;22539;-86
2022/07/16 09:22:09;;;;;;;7.40;2.90;;;;;;;19.82;43.09;98084.88;106211;1274;24357;-86
2022/07/16 09:24:41;;;;;;;8.00;3.10;;;;;;;19.98;43.40;98082.76;106262;1274;25397;-87
2022/07/16 09:27:16;;;;;;;6.60;3.60;;;;;;;20.27;43.56;98083.06;106228;1274;22568;-87
2022/07/16 09:29:52;;;;;;;7.10;3.60;;;;;;;20.44;42.38;98080.69;106252;1274;22670;-86
2022/07/16 09:32:38;;;;;;;7.40;3.10;;;;;;;20.34;42.41;98072.11;106269;1274;22562;-87
2022/07/16 09:35:10;;;;;;;7.50;3.30;;;;;;;20.33;42.53;98073.88;106220;1274;22621;-87
2022/07/16 09:37:45;;;;;;;8.80;3.30;;;;;;;20.47;41.99;98086.92;106370;1272;22625;-89
2022/07/16 09:40:14;;;;;;;8.70;2.70;;;;;;;20.50;41.61;98077.20;106226;1274;22873;-85
2022/07/16 09:42:42;;;;;;;6.80;3.30;;;;;;;20.49;40.05;98074.08;106226;1274;22875;-86
2022/07/16 09:45:20;;;;;;;9.10;3.80;;;;;;;20.56;40.91;98067.65;106234;1274;25487;-88
2022/07/16 09:47:49;;;;;;;7.20;3.20;;;;;;;20.73;40.80;98082.33;106259;1274;23248;-87
2022/07/16 09:50:17;;;;;;;5.00;2.80;;;;;;;20.59;40.82;98075.70;106298;1274;22612;-86
2022/07/16 09:52:45;;;;;;;5.90;2.80;;;;;;;20.49;41.05;98074.84;106272;1274;22685;-86
2022/07/16 09:55:13;;;;;;;6.20;2.80;;;;;;;20.33;41.45;98076.63;106226;1275;22787;-87
2022/07/16 09:57:42;;;;;;;7.70;3.20;;;;;;;20.36;40.90;98077.54;106270;1275;22687;-86
2022/07/16 10:00:11;;;;;;;5.70;2.80;;;;;;;20.48;40.36;98075.45;106241;1274;25345;-87
2022/07/16 10:02:39;;;;;;;5.20;2.70;;;;;;;20.53;39.43;98081.52;106238;1274;25327;-86
2022/07/16 10:05:07;;;;;;;6.00;3.00;;;;;;;20.41;39.77;98077.44;106314;1274;22561;-87
2022/07/16 10:07:35;;;;;;;5.50;2.80;;;;;;;20.46;39.65;98070.39;106545;1274;25346;-87
2022/07/16 10:10:04;;;;;;;5.40;2.70;;;;;;;20.61;40.04;98068.39;106221;1273;24279;-87
2022/07/16 10:12:32;;;;;;;9.70;2.60;;;;;;;20.70;39.92;98063.80;106537;1274;22551;-85
2022/07/16 10:15:01;;;;;;;6.00;2.70;;;;;;;20.72;39.36;98069.00;108855;1274;22618;-84
2022/07/16 10:17:36;;;;;;;7.00;2.90;;;;;;;20.54;39.81;98064.66;106123;1274;24304;-88
2022/07/16 10:20:08;;;;;;;5.00;2.70;;;;;;;20.38;40.26;98056.34;106660;1274;23850;-87
2022/07/16 10:22:38;;;;;;;5.70;2.70;;;;;;;20.37;40.32;98060.52;107044;1274;22666;-87
2022/07/16 10:25:14;;;;;;;7.00;2.40;;;;;;;20.36;39.58;98063.86;106679;1274;22543;-88
2022/07/16 10:27:44;;;;;;;4.80;2.50;;;;;;;20.44;39.88;98057.93;106671;1274;22766;-86
2022/07/16 10:30:18;;;;;;;4.30;2.60;;;;;;;20.55;39.80;98059.10;106286;1274;25324;-84
2022/07/16 10:32:59;;;;;;;7.30;2.60;;;;;;;20.71;39.89;98059.66;106314;1274;25265;-86
2022/07/16 10:35:30;;;;;;;4.30;2.60;;;;;;;20.81;39.59;98061.36;106288;1274;22583;-85
2022/07/16 10:38:18;;;;;;;5.70;2.30;;;;;;;20.80;39.09;98058.36;106250;1275;24208;-87
2022/07/16 10:41:15;;;;;;;8.50;2.90;;;;;;;20.59;39.09;98057.64;106165;1277;25396;-87
2022/07/16 10:44:12;;;;;;;5.00;2.50;;;;;;;20.53;38.49;98052.65;106257;1275;23397;-87
2022/07/16 10:46:57;;;;;;;6.60;2.30;;;;;;;20.67;39.13;98050.98;106242;1277;22556;-87
2022/07/16 10:49:27;;;;;;;8.10;2.30;;;;;;;21.01;38.76;98051.53;106216;1274;22754;-87
2022/07/16 10:52:08;;;;;;;6.30;2.20;;;;;;;21.10;38.47;98041.92;106356;1274;22543;-88
2022/07/16 10:54:39;;;;;;;5.70;2.70;;;;;;;21.08;38.72;98036.16;106259;1274;23186;-88
2022/07/16 10:57:09;;;;;;;3.80;2.00;;;;;;;21.15;38.42;98036.20;106248;1274;22682;-88
2022/07/16 10:59:43;;;;;;;7.90;2.40;;;;;;;21.18;38.49;98027.58;106195;1274;23407;-89
2022/07/16 11:02:13;;;;;;;7.80;2.70;;;;;;;21.33;38.47;98025.79;106200;1274;24418;-88
2022/07/16 11:04:45;;;;;;;7.60;2.40;;;;;;;21.55;38.71;98031.11;106332;1274;23189;-89
2022/07/16 11:07:16;;;;;;;4.50;2.50;;;;;;;21.60;38.46;98028.90;106340;1274;24525;-87
2022/07/16 11:09:54;;;;;;;8.20;2.70;;;;;;;21.59;37.70;98031.15;106304;1274;23392;-86
2022/07/16 11:12:27;;;;;;;4.00;2.30;;;;;;;21.54;38.00;98027.41;106289;1274;22688;-85
2022/07/16 11:14:57;;;;;;;5.00;2.20;;;;;;;21.47;38.24;98029.64;106252;1274;25234;-87
2022/07/16 11:17:30;;;;;;;7.80;2.50;;;;;;;21.39;37.78;98022.63;106537;1274;22702;-86
2022/07/16 11:20:03;;;;;;;7.80;2.50;;;;;;;21.31;37.40;98029.98;106883;1275;23202;-88
2022/07/16 11:22:31;;;;;;;4.70;2.60;;;;;;;21.16;37.58;98029.02;106266;1274;25316;-88
2022/07/16 11:25:02;;;;;;;5.50;2.80;;;;;;;21.27;37.69;98024.60;106261;1274;22615;-87
2022/07/16 11:27:37;;;;;;;4.70;2.10;;;;;;;21.46;37.62;98035.04;106343;1274;23250;-87
2022/07/16 11:30:06;;;;;;;;;;;;;;;21.48;37.22;98036.25;106311;1274;25251;-86
2022/07/16 11:32:46;;;;;;;5.50;2.30;;;;;;;21.45;37.29;98031.33;106251;1274;24392;-87
2022/07/16 11:35:15;;;;;;;6.40;2.50;;;;;;;21.64;37.98;98027.00;106214;1274;22588;-85
2022/07/16 11:37:51;;;;;;;5.40;2.50;;;;;;;21.81;37.43;98036.43;106294;1275;22688;-87
2022/07/16 11:40:39;;;;;;;8.30;2.70;;;;;;;21.84;37.37;98029.25;106147;1274;24408;-87
2022/07/16 11:43:07;;;;;;;4.90;2.50;;;;;;;21.72;37.55;98030.02;106300;1274;22861;-86